sensor_id;sensor_type;location;lat;lon;timestamp;temperature;humidity
3578;DHT22;1803;48.494;9.696;2022-09-17T03:02:18;9.30;99.90
3578;DHT22;1803;48.494;9.696;2022-09-17T03:04:45;9.20;99.90
3578;DHT22;1803;48.494;9.696;2022-09-17T03:07:11;9.20;99.90
3578;DHT22;1803;48.494;9.696;2022-09-17T03:09:37;9.30;99.90
3578;DHT22;1803;48.494;9.696;2022-09-17T03:12:02;9.20;99.90
3578;DHT22;1803;48.494;9.696;2022-09-17T03:14:28;9.20;99.90
3578;DHT22;1803;48.494;9.696;2022-09-17T03:16:53;9.20;99.90
3578;DHT22;1803;48.494;9.696;2022-09-17T03:19:19;9.10;99.90
3578;DHT22;1803;48.494;9.696;2022-09-17T03:21:44;9.00;99.90
3578;DHT22;1803;48.494;9.696;2022-09-17T03:24:10;9.00;99.90
3578;DHT22;1803;48.494;9.696;2022-09-17T03:26:36;8.90;99.90
3578;DHT22;1803;48.494;9.696;2022-09-17T03:29:02;8.90;99.90
3578;DHT22;1803;48.494;9.696;2022-09-17T03:31:27;8.80;99.90
3578;DHT22;1803;48.494;9.696;2022-09-17T03:33:53;8.80;99.90
3578;DHT22;1803;48.494;9.696;2022-09-17T03:36:19;8.70;99.90
3578;DHT22;1803;48.494;9.696;2022-09-17T03:38:44;8.80;99.90
3578;DHT22;1803;48.494;9.696;2022-09-17T03:41:10;8.80;99.90
3578;DHT22;1803;48.494;9.696;2022-09-17T03:43:35;8.90;99.90
3578;DHT22;1803;48.494;9.696;2022-09-17T03:46:01;8.90;99.90
3578;DHT22;1803;48.494;9.696;2022-09-17T03:48:26;8.90;99.90
3578;DHT22;1803;48.494;9.696;2022-09-17T03:50:53;8.80;99.90
3578;DHT22;1803;48.494;9.696;2022-09-17T03:53:19;8.80;99.90
3578;DHT22;1803;48.494;9.696;2022-09-17T03:55:44;8.80;99.90
3578;DHT22;1803;48.494;9.696;2022-09-17T03:58:10;8.80;99.90
3578;DHT22;1803;48.494;9.696;2022-09-17T04:00:35;8.90;99.90
3578;DHT22;1803;48.494;9.696;2022-09-17T04:03:05;8.90;99.90
3578;DHT22;1803;48.494;9.696;2022-09-17T04:05:30;9.00;99.90
3578;DHT22;1803;48.494;9.696;2022-09-17T04:07:56;9.00;99.90
3578;DHT22;1803;48.494;9.696;2022-09-17T04:10:21;9.00;99.90
3578;DHT22;1803;48.494;9.696;2022-09-17T04:12:47;9.00;99.90
3578;DHT22;1803;48.494;9.696;2022-09-17T04:15:13;9.00;99.90
3578;DHT22;1803;48.494;9.696;2022-09-17T04:17:38;9.00;99.90
3578;DHT22;1803;48.494;9.696;2022-09-17T04:20:04;9.00;99.90
3578;DHT22;1803;48.494;9.696;2022-09-17T04:22:30;9.00;99.90
3578;DHT22;1803;48.494;9.696;2022-09-17T04:24:56;9.00;99.90
3578;DHT22;1803;48.494;9.696;2022-09-17T04:27:21;9.00;99.90
3578;DHT22;1803;48.494;9.696;2022-09-17T04:29:46;9.00;99.90
3578;DHT22;1803;48.494;9.696;2022-09-17T04:32:12;9.10;99.90
3578;DHT22;1803;48.494;9.696;2022-09-17T04:34:37;9.10;99.90
3578;DHT22;1803;48.494;9.696;2022-09-17T04:37:03;9.10;99.90
3578;DHT22;1803;48.494;9.696;2022-09-17T04:39:28;9.00;99.90
3578;DHT22;1803;48.494;9.696;2022-09-17T04:41:54;9.10;99.90
3578;DHT22;1803;48.494;9.696;2022-09-17T04:44:19;9.00;99.90
3578;DHT22;1803;48.494;9.696;2022-09-17T04:46:45;9.00;99.90
3578;DHT22;1803;48.494;9.696;2022-09-17T04:49:10;8.90;99.90
3578;DHT22;1803;48.494;9.696;2022-09-17T04:51:36;8.80;99.90
3578;DHT22;1803;48.494;9.696;2022-09-17T04:54:02;8.80;99.90
3578;DHT22;1803;48.494;9.696;2022-09-17T04:56:27;8.90;99.90
3578;DHT22;1803;48.494;9.696;2022-09-17T04:58:53;8.80;99.90
3578;DHT22;1803;48.494;9.696;2022-09-17T05:01:18;8.80;99.90
3578;DHT22;1803;48.494;9.696;2022-09-17T05:03:44;8.80;99.90
3578;DHT22;1803;48.494;9.696;2022-09-17T05:06:09;8.80;99.90
3578;DHT22;1803;48.494;9.696;2022-09-17T05:08:35;8.80;99.90
3578;DHT22;1803;48.494;9.696;2022-09-17T05:11:01;8.80;99.90
3578;DHT22;1803;48.494;9.696;2022-09-17T05:13:26;8.80;99.90
3578;DHT22;1803;48.494;9.696;2022-09-17T05:15:55;8.80;99.90
3578;DHT22;1803;48.494;9.696;2022-09-17T05:18:21;8.80;99.90
3578;DHT22;1803;48.494;9.696;2022-09-17T05:20:46;8.90;99.90
3578;DHT22;1803;48.494;9.696;2022-09-17T05:23:12;8.90;99.90
3578;DHT22;1803;48.494;9.696;2022-09-17T05:25:37;8.90;99.90
3578;DHT22;1803;48.494;9.696;2022-09-17T05:28:03;8.90;99.90
3578;DHT22;1803;48.494;9.696;2022-09-17T05:30:28;8.90;99.90
3578;DHT22;1803;48.494;9.696;2022-09-17T05:32:58;8.90;99.90
3578;DHT22;1803;48.494;9.696;2022-09-17T05:35:24;9.00;99.90
3578;DHT22;1803;48.494;9.696;2022-09-17T05:37:49;9.00;99.90
3578;DHT22;1803;48.494;9.696;2022-09-17T05:40:14;9.00;99.90
3578;DHT22;1803;48.494;9.696;2022-09-17T05:42:40;9.00;99.90
3578;DHT22;1803;48.494;9.696;2022-09-17T05:45:06;9.00;99.90
3578;DHT22;1803;48.494;9.696;2022-09-17T05:47:31;9.00;99.90
3578;DHT22;1803;48.494;9.696;2022-09-17T05:49:59;9.00;99.90
3578;DHT22;1803;48.494;9.696;2022-09-17T05:52:28;9.00;99.90
3578;DHT22;1803;48.494;9.696;2022-09-17T05:54:54;9.00;99.90
3578;DHT22;1803;48.494;9.696;2022-09-17T05:57:19;9.00;99.90
3578;DHT22;1803;48.494;9.696;2022-09-17T05:59:45;9.00;99.90
3578;DHT22;1803;48.494;9.696;2022-09-17T06:02:12;9.10;99.90
3578;DHT22;1803;48.494;9.696;2022-09-17T06:04:37;9.10;99.90
3578;DHT22;1803;48.494;9.696;2022-09-17T06:07:03;9.10;99.90
3578;DHT22;1803;48.494;9.696;2022-09-17T06:09:30;9.10;99.90
3578;DHT22;1803;48.494;9.696;2022-09-17T06:11:56;9.20;99.90
3578;DHT22;1803;48.494;9.696;2022-09-17T06:14:21;9.10;99.90
3578;DHT22;1803;48.494;9.696;2022-09-17T06:16:47;9.10;99.90
3578;DHT22;1803;48.494;9.696;2022-09-17T06:19:12;9.10;99.90
3578;DHT22;1803;48.494;9.696;2022-09-17T06:21:37;9.10;99.90
3578;DHT22;1803;48.494;9.696;2022-09-17T06:24:03;9.60;99.90
3578;DHT22;1803;48.494;9.696;2022-09-17T06:26:28;9.70;99.90
3578;DHT22;1803;48.494;9.696;2022-09-17T06:28:54;9.80;99.90
3578;DHT22;1803;48.494;9.696;2022-09-17T06:31:19;9.80;99.90
3578;DHT22;1803;48.494;9.696;2022-09-17T06:33:45;9.80;99.90
3578;DHT22;1803;48.494;9.696;2022-09-17T06:36:12;9.90;99.90
3578;DHT22;1803;48.494;9.696;2022-09-17T06:38:37;9.90;99.90
3578;DHT22;1803;48.494;9.696;2022-09-17T06:41:03;9.90;99.90
3578;DHT22;1803;48.494;9.696;2022-09-17T06:43:29;9.90;99.90
3578;DHT22;1803;48.494;9.696;2022-09-17T06:45:56;9.90;99.90
3578;DHT22;1803;48.494;9.696;2022-09-17T06:48:22;9.90;99.90
3578;DHT22;1803;48.494;9.696;2022-09-17T06:50:48;9.80;99.90
3578;DHT22;1803;48.494;9.696;2022-09-17T06:53:13;9.80;99.90
3578;DHT22;1803;48.494;9.696;2022-09-17T06:55:39;9.80;99.90
3578;DHT22;1803;48.494;9.696;2022-09-17T06:58:05;10.10;99.90
3578;DHT22;1803;48.494;9.696;2022-09-17T07:00:30;10.30;99.90
3578;DHT22;1803;48.494;9.696;2022-09-17T07:02:56;10.30;99.90
3578;DHT22;1803;48.494;9.696;2022-09-17T07:05:22;10.60;99.90
3578;DHT22;1803;48.494;9.696;2022-09-17T07:07:47;10.60;99.90
3578;DHT22;1803;48.494;9.696;2022-09-17T07:10:13;10.80;99.90
3578;DHT22;1803;48.494;9.696;2022-09-17T07:12:39;10.90;99.90
3578;DHT22;1803;48.494;9.696;2022-09-17T07:15:05;10.90;99.90
3578;DHT22;1803;48.494;9.696;2022-09-17T07:17:30;10.70;99.90
3578;DHT22;1803;48.494;9.696;2022-09-17T07:19:56;10.80;99.90
3578;DHT22;1803;48.494;9.696;2022-09-17T07:22:23;11.10;99.90
3578;DHT22;1803;48.494;9.696;2022-09-17T07:24:48;11.40;99.90
3578;DHT22;1803;48.494;9.696;2022-09-17T07:27:14;11.50;99.90
3578;DHT22;1803;48.494;9.696;2022-09-17T07:29:39;11.90;99.90
3578;DHT22;1803;48.494;9.696;2022-09-17T07:32:05;11.80;99.90
3578;DHT22;1803;48.494;9.696;2022-09-17T07:34:31;11.60;99.90
3578;DHT22;1803;48.494;9.696;2022-09-17T07:36:57;11.40;99.90
3578;DHT22;1803;48.494;9.696;2022-09-17T07:39:22;11.20;99.90
3578;DHT22;1803;48.494;9.696;2022-09-17T07:41:48;10.90;99.90
3578;DHT22;1803;48.494;9.696;2022-09-17T07:44:13;10.70;99.90
3578;DHT22;1803;48.494;9.696;2022-09-17T07:46:39;10.60;99.90
3578;DHT22;1803;48.494;9.696;2022-09-17T07:49:04;10.50;99.90
3578;DHT22;1803;48.494;9.696;2022-09-17T07:51:30;10.50;99.90
3578;DHT22;1803;48.494;9.696;2022-09-17T07:53:56;10.50;99.90
3578;DHT22;1803;48.494;9.696;2022-09-17T07:56:22;10.40;99.90
3578;DHT22;1803;48.494;9.696;2022-09-17T07:58:48;10.40;99.90
3578;DHT22;1803;48.494;9.696;2022-09-17T08:01:14;10.50;99.90
3578;DHT22;1803;48.494;9.696;2022-09-17T08:03:49;10.60;99.90
3578;DHT22;1803;48.494;9.696;2022-09-17T08:06:15;10.80;99.90
3578;DHT22;1803;48.494;9.696;2022-09-17T08:08:42;10.80;99.90
3578;DHT22;1803;48.494;9.696;2022-09-17T08:13:33;10.50;99.90
3578;DHT22;1803;48.494;9.696;2022-09-17T08:16:08;10.40;99.90
3578;DHT22;1803;48.494;9.696;2022-09-17T08:18:34;10.40;99.90
3578;DHT22;1803;48.494;9.696;2022-09-17T08:21:00;10.50;99.90
3578;DHT22;1803;48.494;9.696;2022-09-17T08:23:27;10.70;99.90
3578;DHT22;1803;48.494;9.696;2022-09-17T08:25:53;11.00;99.90
3578;DHT22;1803;48.494;9.696;2022-09-17T08:28:19;11.30;99.90
3578;DHT22;1803;48.494;9.696;2022-09-17T08:30:44;11.20;99.90
3578;DHT22;1803;48.494;9.696;2022-09-17T08:33:12;11.10;99.90
3578;DHT22;1803;48.494;9.696;2022-09-17T08:35:38;11.00;99.90
3578;DHT22;1803;48.494;9.696;2022-09-17T08:38:03;11.00;99.90
3578;DHT22;1803;48.494;9.696;2022-09-17T08:40:29;11.40;99.90
3578;DHT22;1803;48.494;9.696;2022-09-17T08:42:57;11.70;99.90
3578;DHT22;1803;48.494;9.696;2022-09-17T08:45:24;11.70;99.90
3578;DHT22;1803;48.494;9.696;2022-09-17T08:47:51;11.60;99.90
3578;DHT22;1803;48.494;9.696;2022-09-17T08:50:31;11.50;99.90
3578;DHT22;1803;48.494;9.696;2022-09-17T09:00:44;11.20;99.90
3578;DHT22;1803;48.494;9.696;2022-09-17T09:05:55;11.60;99.90
3578;DHT22;1803;48.494;9.696;2022-09-17T09:08:34;11.70;99.90
3578;DHT22;1803;48.494;9.696;2022-09-17T09:11:02;11.70;99.90
3578;DHT22;1803;48.494;9.696;2022-09-17T09:13:30;11.70;99.90
3578;DHT22;1803;48.494;9.696;2022-09-17T09:18:36;11.60;99.90
3578;DHT22;1803;48.494;9.696;2022-09-17T09:21:16;11.70;99.90
3578;DHT22;1803;48.494;9.696;2022-09-17T09:23:53;12.00;99.90
3578;DHT22;1803;48.494;9.696;2022-09-17T09:26:31;12.40;99.90
3578;DHT22;1803;48.494;9.696;2022-09-17T09:31:30;12.60;99.90
3578;DHT22;1803;48.494;9.696;2022-09-17T09:33:59;12.90;99.90
3578;DHT22;1803;48.494;9.696;2022-09-17T09:36:27;13.10;99.90
3578;DHT22;1803;48.494;9.696;2022-09-17T09:38:54;13.10;99.90
3578;DHT22;1803;48.494;9.696;2022-09-17T09:41:26;13.60;99.90
3578;DHT22;1803;48.494;9.696;2022-09-17T09:46:30;14.00;99.90
3578;DHT22;1803;48.494;9.696;2022-09-17T09:57:12;13.10;99.90
3578;DHT22;1803;48.494;9.696;2022-09-17T09:59:38;12.80;99.90
3578;DHT22;1803;48.494;9.696;2022-09-17T10:02:05;12.70;99.90
3578;DHT22;1803;48.494;9.696;2022-09-17T10:04:31;12.70;99.90
3578;DHT22;1803;48.494;9.696;2022-09-17T10:09:27;13.50;99.90
3578;DHT22;1803;48.494;9.696;2022-09-17T10:14:41;14.10;99.90
3578;DHT22;1803;48.494;9.696;2022-09-17T10:19:38;14.60;99.90
3578;DHT22;1803;48.494;9.696;2022-09-17T10:22:37;14.70;99.90
3578;DHT22;1803;48.494;9.696;2022-09-17T10:24:56;14.70;99.90
3578;DHT22;1803;48.494;9.696;2022-09-17T10:27:23;15.10;99.90
3578;DHT22;1803;48.494;9.696;2022-09-17T10:29:50;15.50;99.90
3578;DHT22;1803;48.494;9.696;2022-09-17T10:32:18;16.10;99.90
3578;DHT22;1803;48.494;9.696;2022-09-17T10:34:57;16.70;99.90
3578;DHT22;1803;48.494;9.696;2022-09-17T10:37:43;17.10;99.90
3578;DHT22;1803;48.494;9.696;2022-09-17T10:42:46;16.10;99.90
3578;DHT22;1803;48.494;9.696;2022-09-17T10:45:26;15.50;99.90
3578;DHT22;1803;48.494;9.696;2022-09-17T10:47:52;14.90;99.90
3578;DHT22;1803;48.494;9.696;2022-09-17T10:50:19;14.40;99.90
3578;DHT22;1803;48.494;9.696;2022-09-17T10:52:49;14.00;99.90
3578;DHT22;1803;48.494;9.696;2022-09-17T10:58:17;14.10;99.90
3578;DHT22;1803;48.494;9.696;2022-09-17T11:13:50;13.40;99.90
3578;DHT22;1803;48.494;9.696;2022-09-17T11:29:21;13.70;99.90
3578;DHT22;1803;48.494;9.696;2022-09-17T11:31:53;14.30;99.90
3578;DHT22;1803;48.494;9.696;2022-09-17T11:34:30;14.70;99.90
3578;DHT22;1803;48.494;9.696;2022-09-17T11:36:59;14.70;99.90
3578;DHT22;1803;48.494;9.696;2022-09-17T11:42:02;15.30;99.90
3578;DHT22;1803;48.494;9.696;2022-09-17T11:44:42;15.80;99.90
3578;DHT22;1803;48.494;9.696;2022-09-17T11:47:13;16.30;99.90
3578;DHT22;1803;48.494;9.696;2022-09-17T11:52:10;16.50;99.90
3578;DHT22;1803;48.494;9.696;2022-09-17T11:54:39;16.30;99.90
3578;DHT22;1803;48.494;9.696;2022-09-17T11:57:10;15.80;99.90
3578;DHT22;1803;48.494;9.696;2022-09-17T12:02:24;15.10;99.90
3578;DHT22;1803;48.494;9.696;2022-09-17T12:04:56;14.90;99.90
3578;DHT22;1803;48.494;9.696;2022-09-17T12:07:35;14.60;99.90
3578;DHT22;1803;48.494;9.696;2022-09-17T12:12:32;14.50;99.90
3578;DHT22;1803;48.494;9.696;2022-09-17T12:15:05;14.30;99.90
3578;DHT22;1803;48.494;9.696;2022-09-17T12:17:38;14.30;99.90
3578;DHT22;1803;48.494;9.696;2022-09-17T12:20:06;14.40;99.90
3578;DHT22;1803;48.494;9.696;2022-09-17T12:22:36;14.50;99.90
3578;DHT22;1803;48.494;9.696;2022-09-17T12:25:03;14.70;99.90
3578;DHT22;1803;48.494;9.696;2022-09-17T12:30:12;15.00;99.90
3578;DHT22;1803;48.494;9.696;2022-09-17T12:35:29;14.90;99.90
3578;DHT22;1803;48.494;9.696;2022-09-17T12:42:59;15.50;99.90
3578;DHT22;1803;48.494;9.696;2022-09-17T12:55:48;14.90;99.90
3578;DHT22;1803;48.494;9.696;2022-09-17T12:58:32;15.10;99.90
3578;DHT22;1803;48.494;9.696;2022-09-17T13:01:09;15.10;99.90
3578;DHT22;1803;48.494;9.696;2022-09-17T13:03:37;14.90;99.90
3578;DHT22;1803;48.494;9.696;2022-09-17T13:11:33;13.80;99.90
3578;DHT22;1803;48.494;9.696;2022-09-17T13:21:54;13.30;99.90
3578;DHT22;1803;48.494;9.696;2022-09-17T13:24:25;13.20;99.90
3578;DHT22;1803;48.494;9.696;2022-09-17T13:26:54;13.10;99.90
3578;DHT22;1803;48.494;9.696;2022-09-17T13:32:04;12.40;99.90
3578;DHT22;1803;48.494;9.696;2022-09-17T13:34:30;12.20;99.90
3578;DHT22;1803;48.494;9.696;2022-09-17T13:36:59;12.10;99.90
3578;DHT22;1803;48.494;9.696;2022-09-17T13:39:32;12.20;99.90
3578;DHT22;1803;48.494;9.696;2022-09-17T13:42:18;12.70;99.90
3578;DHT22;1803;48.494;9.696;2022-09-17T13:45:07;12.80;99.90
3578;DHT22;1803;48.494;9.696;2022-09-17T13:47:31;12.80;99.90
3578;DHT22;1803;48.494;9.696;2022-09-17T13:49:58;12.80;99.90
3578;DHT22;1803;48.494;9.696;2022-09-17T13:54:57;12.60;99.90
3578;DHT22;1803;48.494;9.696;2022-09-17T13:57:23;12.50;99.90
3578;DHT22;1803;48.494;9.696;2022-09-17T13:59:51;12.50;99.90
3578;DHT22;1803;48.494;9.696;2022-09-17T14:17:50;11.30;99.90
3578;DHT22;1803;48.494;9.696;2022-09-17T14:20:17;11.30;99.90
3578;DHT22;1803;48.494;9.696;2022-09-17T14:22:44;11.10;99.90
3578;DHT22;1803;48.494;9.696;2022-09-17T14:25:18;10.90;99.90
3578;DHT22;1803;48.494;9.696;2022-09-17T14:27:51;10.90;99.90
3578;DHT22;1803;48.494;9.696;2022-09-17T14:30:29;11.00;99.90
3578;DHT22;1803;48.494;9.696;2022-09-17T14:41:06;11.90;99.90
3578;DHT22;1803;48.494;9.696;2022-09-17T14:43:53;11.80;99.90
3578;DHT22;1803;48.494;9.696;2022-09-17T14:46:23;11.90;99.90
3578;DHT22;1803;48.494;9.696;2022-09-17T14:48:49;11.90;99.90
3578;DHT22;1803;48.494;9.696;2022-09-17T14:53:47;12.20;99.90
3578;DHT22;1803;48.494;9.696;2022-09-17T14:56:17;12.20;99.90
3578;DHT22;1803;48.494;9.696;2022-09-17T14:58:47;12.10;99.90
3578;DHT22;1803;48.494;9.696;2022-09-17T15:01:23;12.00;99.90
3578;DHT22;1803;48.494;9.696;2022-09-17T15:03:49;11.90;99.90
3578;DHT22;1803;48.494;9.696;2022-09-17T15:06:21;11.70;99.90
3578;DHT22;1803;48.494;9.696;2022-09-17T15:08:46;11.60;99.90
3578;DHT22;1803;48.494;9.696;2022-09-17T15:11:12;11.50;99.90
3578;DHT22;1803;48.494;9.696;2022-09-17T15:13:41;11.40;99.90
3578;DHT22;1803;48.494;9.696;2022-09-17T15:16:22;11.40;99.90
3578;DHT22;1803;48.494;9.696;2022-09-17T15:18:51;11.50;99.90
3578;DHT22;1803;48.494;9.696;2022-09-17T15:21:20;11.70;99.90
3578;DHT22;1803;48.494;9.696;2022-09-17T15:23:50;11.70;99.90
3578;DHT22;1803;48.494;9.696;2022-09-17T15:26:19;11.70;99.90
3578;DHT22;1803;48.494;9.696;2022-09-17T15:28:46;11.80;99.90
3578;DHT22;1803;48.494;9.696;2022-09-17T15:31:15;11.90;99.90
3578;DHT22;1803;48.494;9.696;2022-09-17T15:33:41;11.90;99.90
3578;DHT22;1803;48.494;9.696;2022-09-17T15:36:24;11.90;99.90
3578;DHT22;1803;48.494;9.696;2022-09-17T15:38:51;11.70;99.90
3578;DHT22;1803;48.494;9.696;2022-09-17T15:43:42;11.60;99.90
3578;DHT22;1803;48.494;9.696;2022-09-17T15:48:44;11.80;99.90
3578;DHT22;1803;48.494;9.696;2022-09-17T15:51:26;11.70;99.90
3578;DHT22;1803;48.494;9.696;2022-09-17T15:54:02;11.60;99.90
3578;DHT22;1803;48.494;9.696;2022-09-17T15:56:32;11.50;99.90
3578;DHT22;1803;48.494;9.696;2022-09-17T15:58:59;11.40;99.90
3578;DHT22;1803;48.494;9.696;2022-09-17T16:06:37;10.90;99.90
3578;DHT22;1803;48.494;9.696;2022-09-17T16:09:03;10.80;99.90
3578;DHT22;1803;48.494;9.696;2022-09-17T16:11:48;10.80;99.90
3578;DHT22;1803;48.494;9.696;2022-09-17T16:14:13;10.70;99.90
3578;DHT22;1803;48.494;9.696;2022-09-17T16:16:39;10.70;99.90
3578;DHT22;1803;48.494;9.696;2022-09-17T16:19:04;10.70;99.90
3578;DHT22;1803;48.494;9.696;2022-09-17T16:21:30;10.70;99.90
3578;DHT22;1803;48.494;9.696;2022-09-17T16:23:56;10.80;99.90
3578;DHT22;1803;48.494;9.696;2022-09-17T16:26:27;10.90;99.90
3578;DHT22;1803;48.494;9.696;2022-09-17T16:28:53;10.90;99.90
3578;DHT22;1803;48.494;9.696;2022-09-17T16:31:19;10.90;99.90
3578;DHT22;1803;48.494;9.696;2022-09-17T16:33:45;10.90;99.90
3578;DHT22;1803;48.494;9.696;2022-09-17T16:36:10;10.90;99.90
3578;DHT22;1803;48.494;9.696;2022-09-17T16:38:36;10.80;99.90
3578;DHT22;1803;48.494;9.696;2022-09-17T16:41:03;10.70;99.90
3578;DHT22;1803;48.494;9.696;2022-09-17T16:43:29;10.60;99.90
3578;DHT22;1803;48.494;9.696;2022-09-17T16:46:01;10.60;99.90
3578;DHT22;1803;48.494;9.696;2022-09-17T16:48:27;10.70;99.90
3578;DHT22;1803;48.494;9.696;2022-09-17T16:50:53;10.70;99.90
3578;DHT22;1803;48.494;9.696;2022-09-17T16:53:18;10.60;99.90
3578;DHT22;1803;48.494;9.696;2022-09-17T16:55:44;10.60;99.90
3578;DHT22;1803;48.494;9.696;2022-09-17T16:58:09;10.60;99.90
3578;DHT22;1803;48.494;9.696;2022-09-17T17:00:35;10.50;99.90
3578;DHT22;1803;48.494;9.696;2022-09-17T17:03:02;10.50;99.90
3578;DHT22;1803;48.494;9.696;2022-09-17T17:05:27;10.50;99.90
3578;DHT22;1803;48.494;9.696;2022-09-17T17:07:53;10.40;99.90
3578;DHT22;1803;48.494;9.696;2022-09-17T17:10:19;10.20;99.90
3578;DHT22;1803;48.494;9.696;2022-09-17T17:12:45;10.10;99.90
3578;DHT22;1803;48.494;9.696;2022-09-17T17:15:10;10.00;99.90
3578;DHT22;1803;48.494;9.696;2022-09-17T17:17:36;9.90;99.90
3578;DHT22;1803;48.494;9.696;2022-09-17T17:20:06;9.80;99.90
3578;DHT22;1803;48.494;9.696;2022-09-17T17:22:33;9.80;99.90
3578;DHT22;1803;48.494;9.696;2022-09-17T17:24:59;9.70;99.90
3578;DHT22;1803;48.494;9.696;2022-09-17T17:27:24;9.60;99.90
3578;DHT22;1803;48.494;9.696;2022-09-17T17:29:50;9.50;99.90
3578;DHT22;1803;48.494;9.696;2022-09-17T17:32:15;9.50;99.90
3578;DHT22;1803;48.494;9.696;2022-09-17T17:34:41;9.40;99.90
3578;DHT22;1803;48.494;9.696;2022-09-17T17:37:06;9.30;99.90
3578;DHT22;1803;48.494;9.696;2022-09-17T17:39:32;9.20;99.90
3578;DHT22;1803;48.494;9.696;2022-09-17T17:41:57;9.10;99.90
3578;DHT22;1803;48.494;9.696;2022-09-17T17:44:23;9.10;99.90
3578;DHT22;1803;48.494;9.696;2022-09-17T17:46:48;9.10;99.90
3578;DHT22;1803;48.494;9.696;2022-09-17T17:49:14;9.00;99.90
3578;DHT22;1803;48.494;9.696;2022-09-17T17:51:39;9.00;99.90
3578;DHT22;1803;48.494;9.696;2022-09-17T17:54:05;9.00;99.90
3578;DHT22;1803;48.494;9.696;2022-09-17T17:56:30;9.00;99.90
3578;DHT22;1803;48.494;9.696;2022-09-17T17:58:56;9.00;99.90
3578;DHT22;1803;48.494;9.696;2022-09-17T18:01:24;9.10;99.90
3578;DHT22;1803;48.494;9.696;2022-09-17T18:03:54;9.10;99.90
3578;DHT22;1803;48.494;9.696;2022-09-17T18:06:19;9.10;99.90
3578;DHT22;1803;48.494;9.696;2022-09-17T18:08:45;9.20;99.90
3578;DHT22;1803;48.494;9.696;2022-09-17T18:11:10;9.20;99.90
3578;DHT22;1803;48.494;9.696;2022-09-17T18:13:36;9.30;99.90
3578;DHT22;1803;48.494;9.696;2022-09-17T18:16:03;9.30;99.90
3578;DHT22;1803;48.494;9.696;2022-09-17T18:18:30;9.30;99.90
3578;DHT22;1803;48.494;9.696;2022-09-17T18:20:59;9.30;99.90
3578;DHT22;1803;48.494;9.696;2022-09-17T18:23:24;9.30;99.90
3578;DHT22;1803;48.494;9.696;2022-09-17T18:25:53;9.30;99.90
3578;DHT22;1803;48.494;9.696;2022-09-17T18:28:19;9.30;99.90
3578;DHT22;1803;48.494;9.696;2022-09-17T18:30:44;9.30;99.90
3578;DHT22;1803;48.494;9.696;2022-09-17T18:33:10;9.20;99.90
3578;DHT22;1803;48.494;9.696;2022-09-17T18:35:35;9.20;99.90
3578;DHT22;1803;48.494;9.696;2022-09-17T18:38:02;9.20;99.90
3578;DHT22;1803;48.494;9.696;2022-09-17T18:40:30;9.20;99.90
3578;DHT22;1803;48.494;9.696;2022-09-17T18:42:55;9.20;99.90
3578;DHT22;1803;48.494;9.696;2022-09-17T18:45:21;9.30;99.90
3578;DHT22;1803;48.494;9.696;2022-09-17T18:47:46;9.30;99.90
3578;DHT22;1803;48.494;9.696;2022-09-17T18:50:12;9.20;99.90
3578;DHT22;1803;48.494;9.696;2022-09-17T18:52:38;9.20;99.90
3578;DHT22;1803;48.494;9.696;2022-09-17T18:55:04;9.20;99.90
3578;DHT22;1803;48.494;9.696;2022-09-17T18:57:29;9.20;99.90
3578;DHT22;1803;48.494;9.696;2022-09-17T18:59:55;9.10;99.90
3578;DHT22;1803;48.494;9.696;2022-09-17T19:02:22;9.10;99.90
3578;DHT22;1803;48.494;9.696;2022-09-17T19:04:48;9.10;99.90
3578;DHT22;1803;48.494;9.696;2022-09-17T19:07:13;9.00;99.90
3578;DHT22;1803;48.494;9.696;2022-09-17T19:09:39;9.00;99.90
3578;DHT22;1803;48.494;9.696;2022-09-17T19:12:04;9.00;99.90
3578;DHT22;1803;48.494;9.696;2022-09-17T19:14:30;9.00;99.90
3578;DHT22;1803;48.494;9.696;2022-09-17T19:16:55;9.00;99.90
3578;DHT22;1803;48.494;9.696;2022-09-17T19:19:21;9.00;99.90
3578;DHT22;1803;48.494;9.696;2022-09-17T19:21:47;9.00;99.90
3578;DHT22;1803;48.494;9.696;2022-09-17T19:24:13;9.00;99.90
3578;DHT22;1803;48.494;9.696;2022-09-17T19:26:38;9.00;99.90
3578;DHT22;1803;48.494;9.696;2022-09-17T19:29:04;9.00;99.90
3578;DHT22;1803;48.494;9.696;2022-09-17T19:31:30;9.00;99.90
3578;DHT22;1803;48.494;9.696;2022-09-17T19:33:56;9.10;99.90
3578;DHT22;1803;48.494;9.696;2022-09-17T19:36:22;9.10;99.90
3578;DHT22;1803;48.494;9.696;2022-09-17T19:38:48;9.10;99.90
3578;DHT22;1803;48.494;9.696;2022-09-17T19:41:15;9.10;99.90
3578;DHT22;1803;48.494;9.696;2022-09-17T19:43:41;9.10;99.90
3578;DHT22;1803;48.494;9.696;2022-09-17T19:46:08;9.10;99.90
3578;DHT22;1803;48.494;9.696;2022-09-17T19:48:34;9.10;99.90
3578;DHT22;1803;48.494;9.696;2022-09-17T19:51:00;9.10;99.90
3578;DHT22;1803;48.494;9.696;2022-09-17T19:53:26;9.10;99.90
3578;DHT22;1803;48.494;9.696;2022-09-17T19:55:51;9.00;99.90
3578;DHT22;1803;48.494;9.696;2022-09-17T19:58:17;8.90;99.90
